Time;durP1;ratioP1;P1;durP2;ratioP2;P2;SDS_P1;SDS_P2;PMS_P1;PMS_P2;Temp;Humidity;BMP_temperature;BMP_pressure;BME280_temperature;BME280_humidity;BME280_pressure;Samples;Min_cycle;Max_cycle;Signal;HPM_P1;HPM_P2
2022/12/06 00:00:45;;;;;;;9.70;8.20;;;;;;;;;;101415;1278;1002764;-29
2022/12/06 00:03:16;;;;;;;9.50;8.50;;;;;;;;;;101337;1277;1003544;-29
2022/12/06 00:05:46;;;;;;;8.30;7.20;;;;;;;;;;100652;1275;1008689;-29
2022/12/06 00:08:17;;;;;;;9.10;8.10;;;;;;;;;;101390;1274;1004047;-29
2022/12/06 00:10:47;;;;;;;10.00;8.40;;;;;;;;;;101405;1277;1002492;-29
2022/12/06 00:13:18;;;;;;;9.40;8.50;;;;;;;;;;100610;1277;1008772;-29
2022/12/06 00:15:48;;;;;;;10.50;8.50;;;;;;;;;;101389;1278;1002872;-29
2022/12/06 00:18:19;;;;;;;9.60;8.30;;;;;;;;;;101373;1278;1002419;-29
2022/12/06 00:20:49;;;;;;;9.70;8.30;;;;;;;;;;100636;1280;1007914;-29
2022/12/06 00:23:20;;;;;;;9.60;8.50;;;;;;;;;;101340;1277;1008108;-29
2022/12/06 00:25:51;;;;;;;9.50;8.30;;;;;;;;;;101377;1274;1002418;-29
2022/12/06 00:28:21;;;;;;;9.50;8.40;;;;;;;;;;100655;1274;1010367;-28
2022/12/06 00:30:52;;;;;;;9.70;8.40;;;;;;;;;;101373;1275;1002535;-29
2022/12/06 00:33:22;;;;;;;9.70;8.50;;;;;;;;;;101332;1277;1002292;-29
2022/12/06 00:35:58;;;;;;;9.50;8.30;;;;;;;;;;100618;1275;1008645;-29
2022/12/06 00:38:29;;;;;;;9.20;8.20;;;;;;;;;;101402;1271;1003742;-31
2022/12/06 00:41:03;;;;;;;9.80;8.10;;;;;;;;;;100665;1278;1008219;-31
2022/12/06 00:43:39;;;;;;;9.90;8.40;;;;;;;;;;101369;1277;1002099;-31
2022/12/06 00:46:12;;;;;;;9.30;8.20;;;;;;;;;;100665;1274;1008888;-31
2022/12/06 00:48:43;;;;;;;9.40;8.30;;;;;;;;;;101400;1281;1002416;-31
2022/12/06 00:51:15;;;;;;;9.70;8.70;;;;;;;;;;100667;1275;1009873;-31
2022/12/06 00:53:46;;;;;;;10.40;8.40;;;;;;;;;;101349;1277;1007218;-31
2022/12/06 00:56:17;;;;;;;9.10;8.00;;;;;;;;;;101387;1277;1002126;-31
2022/12/06 00:58:48;;;;;;;9.00;8.00;;;;;;;;;;100689;1278;1009044;-31
2022/12/06 01:01:20;;;;;;;9.60;8.10;;;;;;;;;;101419;1278;1002504;-31
2022/12/06 01:03:53;;;;;;;9.60;8.10;;;;;;;;;;101227;1277;1002095;-31
2022/12/06 01:06:28;;;;;;;9.70;8.20;;;;;;;;;;101419;1277;1002239;-31
2022/12/06 01:09:01;;;;;;;9.60;8.20;;;;;;;;;;100652;1273;1007716;-31
2022/12/06 01:11:32;;;;;;;10.20;8.40;;;;;;;;;;101414;1278;1002314;-31
2022/12/06 01:14:03;;;;;;;9.30;8.30;;;;;;;;;;100752;1274;1002409;-31
2022/12/06 01:16:36;;;;;;;9.40;8.10;;;;;;;;;;101399;1277;1002444;-31
2022/12/06 01:19:08;;;;;;;9.60;8.60;;;;;;;;;;101040;1277;1002306;-32
2022/12/06 01:21:38;;;;;;;9.40;8.40;;;;;;;;;;101381;1277;1004226;-31
2022/12/06 01:24:09;;;;;;;9.10;8.00;;;;;;;;;;101334;1277;1003836;-31
2022/12/06 01:26:40;;;;;;;9.70;8.40;;;;;;;;;;100643;1278;1013530;-31
2022/12/06 01:29:12;;;;;;;9.20;8.10;;;;;;;;;;101378;1280;1002300;-32
2022/12/06 01:31:44;;;;;;;9.00;8.10;;;;;;;;;;100661;1277;1008704;-32
2022/12/06 01:34:17;;;;;;;9.30;8.00;;;;;;;;;;101398;1278;1003109;-32
2022/12/06 01:36:50;;;;;;;10.40;8.70;;;;;;;;;;101237;1276;1003189;-32
2022/12/06 01:39:21;;;;;;;9.40;8.40;;;;;;;;;;101360;1281;1002428;-32
2022/12/06 01:41:52;;;;;;;9.50;8.50;;;;;;;;;;101371;1277;1002373;-32
2022/12/06 01:44:44;;;;;;;8.70;7.80;;;;;;;;;;101376;1278;1002982;-32
2022/12/06 01:47:19;;;;;;;9.40;7.90;;;;;;;;;;100748;1278;1013282;-32
2022/12/06 01:49:52;;;;;;;9.70;8.20;;;;;;;;;;101382;1277;1002257;-32
2022/12/06 01:52:21;;;;;;;;;;;;;;;;;;100668;1277;1005932;-32
2022/12/06 01:54:51;;;;;;;9.00;7.80;;;;;;;;;;101399;1277;1002589;-32
2022/12/06 01:57:22;;;;;;;9.10;7.70;;;;;;;;;;101338;1273;1008301;-32
2022/12/06 01:59:53;;;;;;;8.90;7.90;;;;;;;;;;100647;1277;1007766;-32
2022/12/06 02:02:23;;;;;;;9.30;8.30;;;;;;;;;;101401;1278;1002454;-32
2022/12/06 02:04:54;;;;;;;9.60;8.40;;;;;;;;;;101423;1278;1003649;-32
2022/12/06 02:07:27;;;;;;;9.30;7.80;;;;;;;;;;100605;1277;1007634;-32
2022/12/06 02:09:57;;;;;;;9.70;8.30;;;;;;;;;;101374;1277;1004385;-32
2022/12/06 02:12:28;;;;;;;8.90;7.80;;;;;;;;;;101131;1277;1002409;-32
2022/12/06 02:14:59;;;;;;;9.40;8.40;;;;;;;;;;101371;1282;1002403;-32
2022/12/06 02:17:40;;;;;;;9.80;8.60;;;;;;;;;;101348;1278;1002715;-32
2022/12/06 02:20:19;;;;;;;9.50;8.40;;;;;;;;;;100633;1277;1005949;-32
2022/12/06 02:23:17;;;;;;;9.00;7.50;;;;;;;;;;101355;1277;1002403;-32
2022/12/06 02:26:14;;;;;;;9.60;7.70;;;;;;;;;;100598;1278;1007796;-32
2022/12/06 02:29:04;;;;;;;9.20;8.20;;;;;;;;;;100563;1278;1013310;-32
2022/12/06 02:31:36;;;;;;;9.00;7.60;;;;;;;;;;100671;1277;1007659;-32
2022/12/06 02:34:12;;;;;;;9.00;8.10;;;;;;;;;;101410;1277;1004227;-32
2022/12/06 02:36:47;;;;;;;9.60;8.40;;;;;;;;;;100605;1277;1008384;-32
2022/12/06 02:39:22;;;;;;;10.00;8.80;;;;;;;;;;101286;1281;1002278;-31
2022/12/06 02:41:54;;;;;;;9.30;8.30;;;;;;;;;;100636;1275;1008654;-32
2022/12/06 02:44:28;;;;;;;9.90;8.50;;;;;;;;;;101392;1277;1002291;-32
2022/12/06 02:46:59;;;;;;;9.20;8.20;;;;;;;;;;100596;1277;1008859;-32
2022/12/06 02:49:33;;;;;;;9.30;8.20;;;;;;;;;;101398;1277;1002388;-32
2022/12/06 02:52:02;;;;;;;;;;;;;;;;;;100678;1275;1008550;-32
2022/12/06 02:54:33;;;;;;;8.90;7.80;;;;;;;;;;101424;1277;1004197;-32
2022/12/06 02:57:04;;;;;;;8.40;7.50;;;;;;;;;;101342;1277;1002680;-31
2022/12/06 02:59:34;;;;;;;9.00;8.00;;;;;;;;;;100630;1275;1008719;-32
2022/12/06 03:02:09;;;;;;;10.10;8.50;;;;;;;;;;101387;1278;1002690;-32
2022/12/06 03:04:49;;;;;;;9.60;8.50;;;;;;;;;;100652;1275;1009117;-32
2022/12/06 03:07:27;;;;;;;9.50;8.50;;;;;;;;;;101037;1280;1002327;-32
2022/12/06 03:10:12;;;;;;;9.40;8.10;;;;;;;;;;101370;1277;1002368;-32
2022/12/06 03:12:48;;;;;;;9.00;8.10;;;;;;;;;;100663;1281;1008035;-32
2022/12/06 03:15:23;;;;;;;10.20;8.30;;;;;;;;;;101417;1277;1003140;-32
2022/12/06 03:17:57;;;;;;;9.30;8.20;;;;;;;;;;100610;1278;1007953;-32
2022/12/06 03:20:33;;;;;;;9.50;8.40;;;;;;;;;;101391;1277;1002455;-32
2022/12/06 03:23:06;;;;;;;10.20;8.30;;;;;;;;;;100683;1277;1007660;-32
2022/12/06 03:25:37;;;;;;;9.00;8.10;;;;;;;;;;101409;1277;1002272;-32
2022/12/06 03:28:10;;;;;;;9.40;8.00;;;;;;;;;;100625;1277;1007988;-32
2022/12/06 03:30:45;;;;;;;9.10;7.90;;;;;;;;;;101423;1275;1002961;-32
2022/12/06 03:33:17;;;;;;;10.00;8.70;;;;;;;;;;100663;1277;1007429;-32
2022/12/06 03:35:48;;;;;;;8.50;7.60;;;;;;;;;;101418;1277;1002422;-32
2022/12/06 03:38:21;;;;;;;9.30;7.60;;;;;;;;;;101376;1273;1002506;-32
2022/12/06 03:40:52;;;;;;;9.50;8.40;;;;;;;;;;100655;1278;1007283;-33
2022/12/06 03:43:23;;;;;;;9.20;7.90;;;;;;;;;;101406;1278;1004396;-33
2022/12/06 03:45:58;;;;;;;9.30;8.30;;;;;;;;;;101383;1277;1004235;-33
2022/12/06 03:48:32;;;;;;;10.50;8.30;;;;;;;;;;100636;1277;1007692;-32
2022/12/06 03:51:05;;;;;;;9.70;8.10;;;;;;;;;;101392;1277;1004309;-32
2022/12/06 03:53:37;;;;;;;9.40;8.00;;;;;;;;;;100609;1281;1005987;-32
2022/12/06 03:56:09;;;;;;;8.80;7.80;;;;;;;;;;101382;1275;1002178;-31
2022/12/06 03:58:40;;;;;;;9.70;8.40;;;;;;;;;;101086;1274;1002381;-32
2022/12/06 04:01:10;;;;;;;9.80;8.40;;;;;;;;;;101400;1275;1002779;-32
2022/12/06 04:03:41;;;;;;;9.00;8.00;;;;;;;;;;101368;1275;1002415;-31
2022/12/06 04:06:12;;;;;;;9.70;8.70;;;;;;;;;;100655;1275;1008553;-32
2022/12/06 04:08:43;;;;;;;9.30;8.30;;;;;;;;;;101326;1274;1002449;-32
2022/12/06 04:11:13;;;;;;;9.80;8.50;;;;;;;;;;101363;1274;1002440;-32
2022/12/06 04:13:44;;;;;;;10.10;8.40;;;;;;;;;;100701;1274;1008092;-32
2022/12/06 04:19:02;;;;;;;8.80;7.80;;;;;;;;;;100631;1278;1008079;-31
2022/12/06 04:24:21;;;;;;;9.50;7.80;;;;;;;;;;100648;1278;1008212;-32
2022/12/06 04:28:40;;;;;;;10.50;8.30;;;;;;;;;;101395;1277;1002624;-32
2022/12/06 04:40:56;;;;;;;9.50;7.90;;;;;;;;;;100636;1274;1009295;-31
2022/12/06 04:43:41;;;;;;;10.80;8.40;;;;;;;;;;101340;1274;1002406;-31
2022/12/06 04:46:14;;;;;;;9.60;8.10;;;;;;;;;;100611;1275;1008147;-31
2022/12/06 04:48:44;;;;;;;9.90;8.00;;;;;;;;;;101358;1274;1002464;-31
2022/12/06 04:51:15;;;;;;;9.60;8.10;;;;;;;;;;101306;1281;1003714;-31
2022/12/06 04:53:46;;;;;;;9.00;8.10;;;;;;;;;;100612;1277;1008493;-31
2022/12/06 04:56:16;;;;;;;8.90;8.00;;;;;;;;;;101343;1277;1002877;-31
2022/12/06 04:58:47;;;;;;;10.30;8.50;;;;;;;;;;101339;1279;1002452;-31
2022/12/06 05:01:18;;;;;;;9.40;8.30;;;;;;;;;;100564;1274;1008043;-31
2022/12/06 05:03:48;;;;;;;9.30;8.10;;;;;;;;;;101341;1280;1002560;-31
2022/12/06 05:06:19;;;;;;;9.20;7.70;;;;;;;;;;101348;1275;1003967;-33
2022/12/06 05:08:52;;;;;;;8.80;7.90;;;;;;;;;;100619;1280;1007820;-33
2022/12/06 05:11:22;;;;;;;9.30;8.00;;;;;;;;;;101300;1274;1002520;-33
2022/12/06 05:13:53;;;;;;;9.10;7.90;;;;;;;;;;101358;1275;1002854;-33
2022/12/06 05:16:23;;;;;;;9.60;7.80;;;;;;;;;;100587;1281;1007655;-33
2022/12/06 05:18:57;;;;;;;9.20;8.00;;;;;;;;;;101324;1281;1002980;-32
2022/12/06 05:21:26;;;;;;;;;;;;;;;;;;100579;1275;1008652;-31
2022/12/06 05:23:57;;;;;;;8.90;7.70;;;;;;;;;;101362;1274;1002786;-31
2022/12/06 05:26:28;;;;;;;9.10;7.70;;;;;;;;;;101341;1275;1003749;-32
2022/12/06 05:28:59;;;;;;;8.80;7.80;;;;;;;;;;100589;1274;1005846;-32
2022/12/06 05:31:30;;;;;;;8.90;8.00;;;;;;;;;;101288;1268;1002820;-32
2022/12/06 05:34:00;;;;;;;9.80;8.00;;;;;;;;;;101342;1279;1004392;-32
2022/12/06 05:36:30;;;;;;;9.20;7.60;;;;;;;;;;100609;1274;1006631;-32
2022/12/06 05:39:04;;;;;;;9.50;8.00;;;;;;;;;;101320;1275;1002471;-32
2022/12/06 05:41:35;;;;;;;8.80;7.80;;;;;;;;;;100569;1275;1006564;-32
2022/12/06 05:44:09;;;;;;;8.60;7.10;;;;;;;;;;101346;1281;1002333;-32
2022/12/06 05:46:39;;;;;;;10.20;8.40;;;;;;;;;;100605;1277;1006057;-32
2022/12/06 05:49:10;;;;;;;9.80;8.50;;;;;;;;;;101331;1274;1002775;-32
2022/12/06 05:51:40;;;;;;;9.50;8.00;;;;;;;;;;101292;1274;1002372;-32
2022/12/06 05:54:11;;;;;;;10.30;8.10;;;;;;;;;;100603;1275;1006516;-32
2022/12/06 05:56:42;;;;;;;10.50;7.70;;;;;;;;;;101361;1274;1002861;-33
2022/12/06 05:59:14;;;;;;;8.60;7.20;;;;;;;;;;101347;1280;1002275;-34
2022/12/06 06:01:45;;;;;;;9.60;7.90;;;;;;;;;;100620;1274;1005946;-33
2022/12/06 06:04:15;;;;;;;8.60;7.10;;;;;;;;;;101367;1281;1002783;-33
2022/12/06 06:06:46;;;;;;;9.50;7.60;;;;;;;;;;101357;1275;1002339;-33
2022/12/06 06:09:16;;;;;;;8.20;7.10;;;;;;;;;;100624;1274;1006183;-33
2022/12/06 06:11:47;;;;;;;8.80;7.50;;;;;;;;;;101304;1277;1002297;-32
2022/12/06 06:14:18;;;;;;;9.40;7.30;;;;;;;;;;101395;1278;1002299;-32
2022/12/06 06:16:50;;;;;;;9.00;7.50;;;;;;;;;;100687;1279;1006392;-33
2022/12/06 06:19:23;;;;;;;9.50;7.50;;;;;;;;;;101446;1276;1004321;-33
2022/12/06 06:21:54;;;;;;;8.90;7.10;;;;;;;;;;100712;1277;1006435;-33
2022/12/06 06:24:24;;;;;;;8.80;7.20;;;;;;;;;;101485;1278;1002656;-33
2022/12/06 06:26:55;;;;;;;8.30;7.00;;;;;;;;;;101459;1274;1002372;-33
2022/12/06 06:29:26;;;;;;;9.10;6.90;;;;;;;;;;100764;1277;1006194;-32
2022/12/06 06:31:57;;;;;;;9.90;7.30;;;;;;;;;;101453;1275;1002704;-33
2022/12/06 06:34:28;;;;;;;8.70;7.50;;;;;;;;;;101461;1274;1002352;-33
2022/12/06 06:36:58;;;;;;;9.40;7.50;;;;;;;;;;100724;1273;1006765;-33
2022/12/06 06:39:29;;;;;;;8.90;7.40;;;;;;;;;;101455;1275;1003042;-33
2022/12/06 06:42:00;;;;;;;9.70;7.10;;;;;;;;;;101414;1281;1002340;-33
2022/12/06 06:44:31;;;;;;;11.10;7.70;;;;;;;;;;100786;1281;1006389;-33
2022/12/06 06:47:02;;;;;;;9.60;7.30;;;;;;;;;;101505;1277;1002200;-33
2022/12/06 06:49:33;;;;;;;10.10;8.00;;;;;;;;;;101516;1275;1002162;-33
2022/12/06 06:52:04;;;;;;;9.30;7.10;;;;;;;;;;100709;1277;1006586;-33
2022/12/06 06:54:35;;;;;;;9.70;7.30;;;;;;;;;;101503;1280;1002388;-33
2022/12/06 06:57:06;;;;;;;10.50;7.10;;;;;;;;;;101481;1278;1002044;-33
2022/12/06 06:59:37;;;;;;;10.80;7.90;;;;;;;;;;100621;1278;1006705;-34
2022/12/06 07:02:09;;;;;;;8.70;7.20;;;;;;;;;;101323;1277;1002672;-34
2022/12/06 07:04:39;;;;;;;10.50;7.40;;;;;;;;;;101483;1267;1002141;-33
2022/12/06 07:07:11;;;;;;;10.90;7.50;;;;;;;;;;100791;1277;1008917;-33
2022/12/06 07:09:42;;;;;;;9.70;7.50;;;;;;;;;;101602;1272;1002423;-33
2022/12/06 07:12:14;;;;;;;9.40;7.20;;;;;;;;;;101522;1275;1007319;-33
2022/12/06 07:14:46;;;;;;;9.80;7.60;;;;;;;;;;100830;1272;1006321;-33
2022/12/06 07:17:16;;;;;;;9.80;7.40;;;;;;;;;;101635;1278;1003851;-33
2022/12/06 07:19:47;;;;;;;10.00;7.40;;;;;;;;;;101622;1278;1002436;-32
2022/12/06 07:22:18;;;;;;;9.90;7.50;;;;;;;;;;100800;1278;1006328;-33
2022/12/06 07:24:49;;;;;;;9.50;7.50;;;;;;;;;;101466;1277;1002669;-33
2022/12/06 07:27:24;;;;;;;10.10;7.10;;;;;;;;;;100740;1271;1002627;-32
2022/12/06 07:29:54;;;;;;;;;;;;;;;;;;101610;1271;1003510;-33
2022/12/06 07:32:26;;;;;;;9.60;7.00;;;;;;;;;;101311;1275;1002395;-33
2022/12/06 07:34:57;;;;;;;8.60;6.70;;;;;;;;;;101535;1274;1003296;-33
2022/12/06 07:37:28;;;;;;;9.50;7.90;;;;;;;;;;101532;1271;1003829;-33
2022/12/06 07:39:59;;;;;;;8.50;7.60;;;;;;;;;;100853;1272;1008609;-33
2022/12/06 07:45:22;;;;;;;8.60;7.50;;;;;;;;;;100808;1271;1013596;-32
2022/12/06 07:47:54;;;;;;;9.20;7.30;;;;;;;;;;101650;1279;1002097;-31
2022/12/06 07:50:25;;;;;;;8.50;7.10;;;;;;;;;;101597;1278;1002300;-32
2022/12/06 07:52:58;;;;;;;9.30;7.50;;;;;;;;;;100898;1278;1008088;-32
2022/12/06 07:55:29;;;;;;;8.70;6.70;;;;;;;;;;101529;1272;1002429;-32
2022/12/06 07:58:00;;;;;;;9.20;7.00;;;;;;;;;;100948;1271;1002296;-31
2022/12/06 08:00:32;;;;;;;9.00;7.10;;;;;;;;;;101552;1275;1002781;-31
2022/12/06 08:03:06;;;;;;;7.80;6.60;;;;;;;;;;100818;1279;1005959;-33
2022/12/06 08:05:40;;;;;;;9.20;7.50;;;;;;;;;;101549;1275;1004221;-33
2022/12/06 08:08:11;;;;;;;8.90;7.40;;;;;;;;;;100828;1279;1008255;-32
2022/12/06 08:10:44;;;;;;;8.10;7.10;;;;;;;;;;101523;1275;1003609;-34
2022/12/06 08:13:13;;;;;;;;;;;;;;;;;;100745;1265;1002449;-33
2022/12/06 08:15:47;;;;;;;9.00;7.50;;;;;;;;;;101422;1271;1002938;-33
2022/12/06 08:18:17;;;;;;;8.70;7.40;;;;;;;;;;101445;1275;1002645;-33
2022/12/06 08:20:49;;;;;;;8.20;7.10;;;;;;;;;;100724;1272;1008579;-33
2022/12/06 08:23:21;;;;;;;8.60;6.70;;;;;;;;;;101453;1272;1002377;-33
2022/12/06 08:26:02;;;;;;;8.10;7.00;;;;;;;;;;101366;1271;1002059;-33
2022/12/06 08:28:36;;;;;;;8.20;6.90;;;;;;;;;;100712;1277;1008960;-33
2022/12/06 08:31:12;;;;;;;8.60;7.00;;;;;;;;;;101437;1275;1002290;-33
2022/12/06 08:33:44;;;;;;;7.40;6.20;;;;;;;;;;100743;1275;1008410;-33
2022/12/06 08:36:20;;;;;;;7.90;6.60;;;;;;;;;;101495;1275;1004056;-33
2022/12/06 08:38:53;;;;;;;8.60;6.50;;;;;;;;;;100595;1275;1008198;-32
2022/12/06 08:44:15;;;;;;;7.90;6.80;;;;;;;;;;100407;1271;1022344;-32
2022/12/06 08:46:46;;;;;;;8.80;6.60;;;;;;;;;;101162;1278;1002376;-32
2022/12/06 08:49:18;;;;;;;7.30;6.50;;;;;;;;;;100667;1275;1003796;-34
2022/12/06 08:51:49;;;;;;;7.20;6.30;;;;;;;;;;101199;1274;1002461;-34
2022/12/06 08:54:25;;;;;;;7.90;6.60;;;;;;;;;;101176;1275;1002312;-33
2022/12/06 08:56:58;;;;;;;9.00;6.70;;;;;;;;;;100382;1272;1028510;-32
2022/12/06 08:59:28;;;;;;;7.80;6.80;;;;;;;;;;101148;1272;1002375;-32
2022/12/06 09:02:02;;;;;;;8.10;6.70;;;;;;;;;;100780;1271;1002922;-33
2022/12/06 09:04:35;;;;;;;7.40;6.20;;;;;;;;;;101143;1272;1003826;-32
2022/12/06 09:07:07;;;;;;;7.30;6.30;;;;;;;;;;100399;1274;1017321;-33
2022/12/06 09:09:38;;;;;;;7.60;6.50;;;;;;;;;;101145;1272;1003557;-33
2022/12/06 09:12:10;;;;;;;7.60;6.60;;;;;;;;;;100670;1274;1002456;-33
2022/12/06 09:14:41;;;;;;;7.20;6.00;;;;;;;;;;101183;1275;1002414;-32
2022/12/06 09:17:15;;;;;;;7.60;6.40;;;;;;;;;;100956;1271;1003423;-32
2022/12/06 09:19:47;;;;;;;8.40;7.10;;;;;;;;;;101151;1271;1002806;-33
2022/12/06 09:22:20;;;;;;;7.80;6.10;;;;;;;;;;100449;1271;1022786;-32
2022/12/06 09:24:50;;;;;;;8.00;6.30;;;;;;;;;;101172;1271;1002676;-33
2022/12/06 09:27:21;;;;;;;7.40;6.40;;;;;;;;;;101105;1272;1002335;-34
2022/12/06 09:29:52;;;;;;;7.30;6.40;;;;;;;;;;100410;1272;1022855;-32
2022/12/06 09:32:26;;;;;;;8.40;6.60;;;;;;;;;;101170;1278;1002328;-32
2022/12/06 09:35:00;;;;;;;7.20;6.30;;;;;;;;;;100423;1272;1022287;-32
2022/12/06 09:37:29;;;;;;;;;;;;;;;;;;101166;1278;1002319;-32
2022/12/06 09:40:07;;;;;;;8.30;7.00;;;;;;;;;;101158;1271;1002384;-32
2022/12/06 09:42:48;;;;;;;7.60;6.80;;;;;;;;;;100426;1272;1022461;-32
2022/12/06 09:45:28;;;;;;;;;;;;;;;;;;100437;1272;1022687;-32
2022/12/06 09:48:14;;;;;;;7.70;6.10;;;;;;;;;;101160;1274;1002387;-32
2022/12/06 09:50:52;;;;;;;8.10;6.80;;;;;;;;;;100357;1274;1023114;-32
2022/12/06 09:53:33;;;;;;;9.10;7.00;;;;;;;;;;101100;1274;1002365;-32
2022/12/06 09:56:09;;;;;;;7.90;7.10;;;;;;;;;;100340;1277;1022833;-32
2022/12/06 09:58:52;;;;;;;8.40;7.30;;;;;;;;;;101167;1272;1003214;-34
2022/12/06 10:01:26;;;;;;;7.80;7.00;;;;;;;;;;100434;1272;1022182;-33
2022/12/06 10:04:07;;;;;;;7.70;6.90;;;;;;;;;;101159;1271;1002374;-33
2022/12/06 10:06:44;;;;;;;7.70;6.90;;;;;;;;;;100404;1271;1021335;-34
2022/12/06 10:09:31;;;;;;;8.40;7.50;;;;;;;;;;101156;1275;1002251;-33
2022/12/06 10:12:13;;;;;;;7.90;6.60;;;;;;;;;;100401;1274;1021857;-33
2022/12/06 10:14:56;;;;;;;8.10;7.00;;;;;;;;;;100388;1275;1021856;-33
2022/12/06 10:17:39;;;;;;;8.00;7.10;;;;;;;;;;100377;1272;1021749;-32
2022/12/06 10:20:16;;;;;;;8.80;6.80;;;;;;;;;;100445;1271;1021147;-33
2022/12/06 10:22:55;;;;;;;7.60;6.50;;;;;;;;;;101167;1271;1002535;-33
2022/12/06 10:25:30;;;;;;;8.40;7.50;;;;;;;;;;100419;1271;1023499;-33
2022/12/06 10:28:07;;;;;;;8.90;7.50;;;;;;;;;;101125;1272;1002780;-33
2022/12/06 10:30:44;;;;;;;8.40;7.20;;;;;;;;;;100410;1274;1021724;-33
2022/12/06 10:33:25;;;;;;;9.10;7.80;;;;;;;;;;101160;1272;1002275;-32
2022/12/06 10:35:59;;;;;;;9.60;7.70;;;;;;;;;;100460;1272;1022051;-32
2022/12/06 10:38:35;;;;;;;8.00;7.00;;;;;;;;;;101165;1271;1002706;-32
2022/12/06 10:41:13;;;;;;;8.30;7.10;;;;;;;;;;100431;1271;1021386;-32
2022/12/06 10:43:52;;;;;;;8.50;6.70;;;;;;;;;;101129;1271;1002246;-33
2022/12/06 10:49:24;;;;;;;7.60;6.80;;;;;;;;;;100379;1274;1029013;-33
2022/12/06 10:52:00;;;;;;;7.90;7.10;;;;;;;;;;100451;1273;1003700;-33
2022/12/06 10:54:37;;;;;;;8.60;7.70;;;;;;;;;;101126;1278;1003187;-33
2022/12/06 10:57:28;;;;;;;8.90;7.30;;;;;;;;;;100407;1272;1017886;-34
2022/12/06 11:00:04;;;;;;;8.20;7.10;;;;;;;;;;100448;1272;1022745;-33
2022/12/06 11:02:39;;;;;;;8.20;6.90;;;;;;;;;;101144;1275;1002534;-33
2022/12/06 11:05:16;;;;;;;8.40;7.20;;;;;;;;;;100457;1271;1017583;-33
2022/12/06 11:07:52;;;;;;;8.20;7.30;;;;;;;;;;101109;1271;1002398;-33
2022/12/06 11:10:25;;;;;;;7.90;6.80;;;;;;;;;;100421;1272;1017924;-32
2022/12/06 11:13:00;;;;;;;8.00;6.90;;;;;;;;;;101136;1275;1003975;-33
2022/12/06 11:15:35;;;;;;;8.60;7.30;;;;;;;;;;100444;1274;1017418;-33
2022/12/06 11:18:10;;;;;;;8.60;7.70;;;;;;;;;;101104;1275;1002357;-33
2022/12/06 11:20:49;;;;;;;8.30;7.40;;;;;;;;;;100442;1271;1019731;-32
2022/12/06 11:23:25;;;;;;;7.80;7.00;;;;;;;;;;101161;1271;1002218;-32
2022/12/06 11:26:12;;;;;;;8.40;7.40;;;;;;;;;;100462;1273;1019450;-32
2022/12/06 11:28:48;;;;;;;7.80;6.80;;;;;;;;;;100420;1275;1019781;-33
2022/12/06 11:31:22;;;;;;;8.60;7.40;;;;;;;;;;101135;1275;1002363;-34
2022/12/06 11:33:53;;;;;;;7.80;6.90;;;;;;;;;;100430;1274;1022251;-32
2022/12/06 11:36:27;;;;;;;8.30;7.40;;;;;;;;;;101179;1274;1002888;-33
2022/12/06 11:39:00;;;;;;;8.70;7.60;;;;;;;;;;100413;1271;1022223;-33
2022/12/06 11:41:33;;;;;;;8.20;7.30;;;;;;;;;;101182;1271;1002178;-33
2022/12/06 11:44:05;;;;;;;8.10;7.20;;;;;;;;;;100463;1271;1022267;-33
2022/12/06 11:46:36;;;;;;;9.00;7.40;;;;;;;;;;101170;1272;1002389;-33
2022/12/06 11:49:17;;;;;;;8.10;7.30;;;;;;;;;;101154;1272;1007758;-32
2022/12/06 11:51:48;;;;;;;8.20;7.20;;;;;;;;;;100407;1272;1022232;-34
2022/12/06 11:54:24;;;;;;;8.10;7.10;;;;;;;;;;101137;1273;1003182;-33
2022/12/06 11:56:56;;;;;;;8.40;7.50;;;;;;;;;;100404;1274;1022518;-34
2022/12/06 11:59:28;;;;;;;9.40;8.40;;;;;;;;;;101102;1275;1003744;-33
2022/12/06 12:02:01;;;;;;;9.00;7.70;;;;;;;;;;100442;1272;1022948;-31
2022/12/06 12:04:40;;;;;;;8.70;7.60;;;;;;;;;;101169;1271;1004479;-33
2022/12/06 12:07:17;;;;;;;9.10;8.00;;;;;;;;;;100452;1271;1022597;-33
2022/12/06 12:09:52;;;;;;;8.60;7.50;;;;;;;;;;101101;1274;1002320;-33
2022/12/06 12:13:42;;;;;;;9.20;7.90;;;;;;;;;;100396;1273;1021658;-33
2022/12/06 12:15:21;;;;;;;8.10;7.10;;;;;;;;;;100430;1274;1022599;-33
2022/12/06 12:17:54;;;;;;;9.10;7.80;;;;;;;;;;101129;1275;1002412;-33
2022/12/06 12:20:27;;;;;;;8.70;7.80;;;;;;;;;;100357;1277;1018266;-33
2022/12/06 12:23:03;;;;;;;8.50;7.60;;;;;;;;;;101163;1271;1003896;-32
2022/12/06 12:25:41;;;;;;;8.40;7.60;;;;;;;;;;100473;1272;1017920;-33
2022/12/06 12:28:25;;;;;;;8.30;7.40;;;;;;;;;;101176;1271;1003946;-33
2022/12/06 12:30:57;;;;;;;9.00;7.70;;;;;;;;;;100432;1271;1017169;-31
2022/12/06 12:33:31;;;;;;;9.40;8.40;;;;;;;;;;101136;1275;1002377;-33
2022/12/06 12:36:17;;;;;;;9.30;7.90;;;;;;;;;;100439;1272;1019685;-33
2022/12/06 12:38:56;;;;;;;10.00;7.90;;;;;;;;;;100402;1277;1019117;-32
2022/12/06 12:41:31;;;;;;;9.60;7.80;;;;;;;;;;101127;1274;1002357;-33
2022/12/06 12:44:05;;;;;;;9.10;7.80;;;;;;;;;;100422;1278;1019285;-32
2022/12/06 12:46:37;;;;;;;8.90;7.70;;;;;;;;;;101161;1275;1002559;-32
2022/12/06 12:49:26;;;;;;;9.00;7.80;;;;;;;;;;100452;1273;1021144;-32
2022/12/06 12:51:59;;;;;;;9.00;7.70;;;;;;;;;;100384;1274;1019755;-32
2022/12/06 12:54:32;;;;;;;8.60;7.70;;;;;;;;;;101122;1273;1002693;-32
2022/12/06 12:57:13;;;;;;;9.50;8.40;;;;;;;;;;100429;1274;1019769;-32
2022/12/06 12:59:47;;;;;;;8.80;7.80;;;;;;;;;;100412;1274;1019775;-27
2022/12/06 13:02:22;;;;;;;9.30;8.20;;;;;;;;;;101135;1271;1003874;-29
2022/12/06 13:04:57;;;;;;;8.90;7.80;;;;;;;;;;100447;1271;1023104;-29
2022/12/06 13:07:30;;;;;;;9.40;8.20;;;;;;;;;;101142;1271;1002311;-28
2022/12/06 13:10:05;;;;;;;8.70;7.60;;;;;;;;;;100423;1274;1022435;-28
2022/12/06 13:12:38;;;;;;;9.00;7.80;;;;;;;;;;101110;1272;1004165;-28
2022/12/06 13:15:14;;;;;;;9.30;8.20;;;;;;;;;;100443;1275;1021893;-28
2022/12/06 13:17:48;;;;;;;9.50;8.00;;;;;;;;;;101181;1275;1003341;-29
2022/12/06 13:20:26;;;;;;;9.60;8.30;;;;;;;;;;100441;1274;1021967;-29
2022/12/06 13:23:00;;;;;;;9.30;8.20;;;;;;;;;;101119;1275;1003852;-29
2022/12/06 13:25:34;;;;;;;9.70;8.70;;;;;;;;;;100426;1272;1021970;-29
2022/12/06 13:28:12;;;;;;;8.90;7.60;;;;;;;;;;101160;1271;1002742;-29
2022/12/06 13:30:43;;;;;;;10.00;8.30;;;;;;;;;;100436;1272;1021861;-30
2022/12/06 13:33:20;;;;;;;9.60;8.30;;;;;;;;;;101080;1274;1003769;-30
2022/12/06 13:35:55;;;;;;;8.80;7.90;;;;;;;;;;100402;1274;1021968;-30
2022/12/06 13:38:31;;;;;;;9.10;8.00;;;;;;;;;;101139;1274;1003598;-30
2022/12/06 13:41:03;;;;;;;11.10;8.70;;;;;;;;;;100401;1274;1021379;-30
2022/12/06 13:43:56;;;;;;;9.80;8.70;;;;;;;;;;101180;1271;1002299;-30
2022/12/06 13:46:32;;;;;;;9.50;8.10;;;;;;;;;;100475;1271;1021835;-29
2022/12/06 13:49:25;;;;;;;9.80;8.50;;;;;;;;;;101160;1272;1002464;-30
2022/12/06 13:51:56;;;;;;;10.00;8.50;;;;;;;;;;100381;1271;1021602;-30
2022/12/06 13:54:35;;;;;;;9.10;7.70;;;;;;;;;;101106;1274;1002797;-30
2022/12/06 13:57:24;;;;;;;10.30;7.90;;;;;;;;;;100309;1272;1021227;-29
2022/12/06 13:59:55;;;;;;;10.30;8.20;;;;;;;;;;100400;1274;1021076;-29
2022/12/06 14:02:48;;;;;;;10.70;8.40;;;;;;;;;;101115;1274;1003071;-29
2022/12/06 14:05:56;;;;;;;10.70;8.80;;;;;;;;;;100402;1271;1022109;-29
2022/12/06 14:08:39;;;;;;;10.30;8.70;;;;;;;;;;100443;1275;1021966;-29
2022/12/06 14:11:22;;;;;;;9.00;8.00;;;;;;;;;;100416;1274;1022913;-29
2022/12/06 14:14:07;;;;;;;9.50;8.20;;;;;;;;;;100417;1275;1022663;-27
2022/12/06 14:16:41;;;;;;;10.00;8.80;;;;;;;;;;100465;1275;1022232;-28
2022/12/06 14:19:18;;;;;;;10.20;9.10;;;;;;;;;;101141;1274;1002369;-28
2022/12/06 14:21:55;;;;;;;9.50;8.20;;;;;;;;;;100418;1265;1021953;-28
2022/12/06 14:24:31;;;;;;;10.10;8.70;;;;;;;;;;101090;1274;1002476;-28
2022/12/06 14:27:10;;;;;;;11.00;9.40;;;;;;;;;;100313;1274;1021767;-29
2022/12/06 14:29:41;;;;;;;10.80;9.10;;;;;;;;;;101071;1274;1002400;-29
2022/12/06 14:32:12;;;;;;;10.50;8.80;;;;;;;;;;100326;1274;1021805;-30
2022/12/06 14:34:43;;;;;;;10.20;8.90;;;;;;;;;;101179;1271;1002382;-30
2022/12/06 14:37:21;;;;;;;11.20;9.50;;;;;;;;;;101115;1275;1002152;-29
2022/12/06 14:39:58;;;;;;;12.00;9.50;;;;;;;;;;100359;1271;1021759;-28
2022/12/06 14:45:19;;;;;;;10.60;9.40;;;;;;;;;;100399;1271;1026741;-29
2022/12/06 14:47:50;;;;;;;10.70;9.10;;;;;;;;;;101096;1274;1002395;-29
2022/12/06 14:50:32;;;;;;;11.00;9.30;;;;;;;;;;101128;1271;1002418;-29
2022/12/06 14:53:05;;;;;;;10.30;9.20;;;;;;;;;;100387;1272;1022693;-28
2022/12/06 14:55:38;;;;;;;11.30;9.50;;;;;;;;;;101097;1274;1002307;-29
2022/12/06 14:58:16;;;;;;;10.30;9.20;;;;;;;;;;100394;1271;1021760;-29
2022/12/06 15:00:54;;;;;;;11.30;9.60;;;;;;;;;;100336;1277;1022043;-29
2022/12/06 15:03:29;;;;;;;10.20;9.10;;;;;;;;;;101073;1271;1005087;-29
2022/12/06 15:06:16;;;;;;;11.20;10.00;;;;;;;;;;100414;1271;1021550;-29
2022/12/06 15:08:50;;;;;;;10.40;9.30;;;;;;;;;;100381;1272;1021974;-28
2022/12/06 15:14:25;;;;;;;9.70;8.60;;;;;;;;;;100360;1271;1021555;-28